Time;durP1;ratioP1;P1;durP2;ratioP2;P2;SDS_P1;SDS_P2;PMS_P1;PMS_P2;Temp;Humidity;BMP_temperature;BMP_pressure;BME280_temperature;BME280_humidity;BME280_pressure;Samples;Min_cycle;Max_cycle;Signal;HPM_P1;HPM_P2
2022/10/31 00:01:55;;;;;;;;;8.00;8.00;;;;;17.43;63.41;101357.38;4994981;28;45404;-69
2022/10/31 00:04:20;;;;;;;;;8.75;6.75;;;;;17.42;63.98;101360.38;4995247;28;45156;-67
2022/10/31 00:06:46;;;;;;;;;6.75;6.50;;;;;17.32;63.73;101349.91;4995659;28;45176;-68
2022/10/31 00:09:11;;;;;;;;;8.75;6.50;;;;;17.25;63.95;101355.59;4993392;28;45306;-69
2022/10/31 00:11:37;;;;;;;;;9.00;9.00;;;;;17.30;64.25;101365.97;5010428;28;45372;-68
2022/10/31 00:14:02;;;;;;;;;9.00;9.00;;;;;17.34;63.85;101370.78;4995272;28;45559;-68
2022/10/31 00:16:28;;;;;;;;;9.50;7.00;;;;;17.30;63.32;101347.38;4961071;28;45693;-68
2022/10/31 00:18:55;;;;;;;;;5.75;5.75;;;;;17.42;63.80;101358.47;4994655;28;45451;-68
2022/10/31 00:21:21;;;;;;;;;7.20;7.20;;;;;17.28;64.13;101351.50;4977058;28;45474;-68
2022/10/31 00:23:47;;;;;;;;;16.25;15.00;;;;;17.28;64.30;101357.03;4977631;28;45401;-68
2022/10/31 00:26:12;;;;;;;;;8.75;7.00;;;;;16.86;64.15;101278.41;4994029;28;45447;-68
2022/10/31 00:28:38;;;;;;;;;9.00;8.25;;;;;17.36;63.87;101353.91;4977292;28;47078;-68
2022/10/31 00:31:05;;;;;;;;;8.50;8.00;;;;;17.28;64.21;101363.41;4977287;28;45370;-67
2022/10/31 00:33:30;;;;;;;;;12.00;10.60;;;;;17.17;64.45;101354.03;4994753;28;45362;-69
2022/10/31 00:35:56;;;;;;;;;13.75;10.50;;;;;17.25;64.52;101354.75;4993805;28;45330;-67
2022/10/31 00:38:21;;;;;;;;;9.00;7.50;;;;;17.31;63.98;101359.31;4977360;28;47900;-67
2022/10/31 00:40:47;;;;;;;;;8.75;8.75;;;;;17.13;64.02;101327.84;4993647;28;45505;-67
2022/10/31 00:43:12;;;;;;;;;7.75;7.25;;;;;17.23;64.54;101368.84;4995108;28;45318;-66
2022/10/31 00:45:38;;;;;;;;;8.25;7.00;;;;;17.26;64.46;101368.38;4995026;28;45546;-67
2022/10/31 00:48:04;;;;;;;;;11.75;10.75;;;;;17.00;64.50;101328.91;4993706;28;46185;-68
2022/10/31 00:50:30;;;;;;;;;7.20;6.20;;;;;16.82;64.36;101299.38;4993371;28;45505;-66
2022/10/31 00:52:56;;;;;;;;;41.50;35.50;;;;;17.24;64.60;101351.09;4960968;28;45505;-66
2022/10/31 00:55:22;;;;;;;;;19.20;15.20;;;;;17.24;64.38;101350.28;4993639;28;45314;-64
2022/10/31 00:57:47;;;;;;;;;8.50;7.50;;;;;17.24;64.65;101361.38;4994568;28;45970;-64
2022/10/31 01:00:13;;;;;;;;;9.00;8.00;;;;;17.08;64.34;101327.75;4994622;28;45380;-66
2022/10/31 01:02:39;;;;;;;;;12.20;9.40;;;;;17.30;64.28;101354.88;4993602;28;45182;-67
2022/10/31 01:05:04;;;;;;;;;6.50;6.50;;;;;17.17;64.67;101347.63;4996203;28;45214;-66
2022/10/31 01:07:30;;;;;;;;;10.00;9.00;;;;;17.20;64.43;101350.75;4997858;28;46506;-67
2022/10/31 01:09:55;;;;;;;;;12.25;10.50;;;;;17.25;64.39;101340.88;4997527;28;45398;-67
2022/10/31 01:12:21;;;;;;;;;8.00;8.00;;;;;17.24;64.24;101340.00;4964814;28;45197;-66
2022/10/31 01:14:46;;;;;;;;;10.25;10.25;;;;;17.27;64.40;101333.13;4975186;28;45333;-65
2022/10/31 01:17:12;;;;;;;;;9.25;7.50;;;;;17.23;64.56;101323.63;4978156;28;45305;-66
2022/10/31 01:19:38;;;;;;;;;6.80;6.80;;;;;17.11;64.81;101326.41;4978093;28;45680;-66
2022/10/31 01:22:03;;;;;;;;;11.25;9.75;;;;;17.16;64.66;101315.44;4978327;28;45283;-65
2022/10/31 01:24:29;;;;;;;;;8.75;7.75;;;;;17.22;64.53;101308.91;4978651;28;45588;-66
2022/10/31 01:26:54;;;;;;;;;9.75;8.00;;;;;17.01;64.70;101283.47;4976563;28;45522;-66
2022/10/31 01:29:20;;;;;;;;;12.25;10.50;;;;;17.13;64.98;101310.38;4978152;28;45350;-65
2022/10/31 01:31:45;;;;;;;;;10.25;10.25;;;;;16.79;64.99;101261.03;4976616;28;45344;-66
2022/10/31 01:34:13;;;;;;;;;11.25;10.00;;;;;17.17;64.89;101312.41;4976657;28;45787;-66
2022/10/31 01:36:39;;;;;;;;;12.60;10.00;;;;;17.06;64.59;101279.97;4977693;28;46463;-65
2022/10/31 01:39:13;;;;;;;;;7.80;7.80;;;;;16.93;64.26;101251.38;4977563;28;45401;-67
2022/10/31 01:41:41;;;;;;;;;12.20;9.80;;;;;17.31;64.54;101315.78;4976414;28;45418;-66
2022/10/31 01:44:13;;;;;;;;;11.80;11.60;;;;;17.17;64.52;101278.28;4977503;28;45355;-66
2022/10/31 01:46:59;;;;;;;;;11.40;9.80;;;;;17.32;64.48;101297.19;4977318;28;46520;-65
2022/10/31 01:49:36;;;;;;;;;12.80;10.40;;;;;17.33;64.30;101291.41;4969501;28;45576;-65
2022/10/31 01:52:12;;;;;;;;;8.80;7.20;;;;;17.31;64.48;101279.72;4976043;28;45341;-65
2022/10/31 01:54:40;;;;;;;;;7.20;7.20;;;;;16.86;64.46;101220.19;4976899;28;45485;-66
2022/10/31 01:57:07;;;;;;;;;8.00;8.00;;;;;17.02;64.35;101239.97;4976050;28;46033;-66
2022/10/31 01:59:33;;;;;;;;;12.60;11.00;;;;;16.78;64.19;101202.00;4977411;28;45450;-65
2022/10/31 02:01:58;;;;;;;;;12.20;10.00;;;;;17.28;64.48;101290.47;4976347;28;45695;-65
2022/10/31 02:04:24;;;;;;;;;12.00;10.00;;;;;17.21;64.75;101279.50;4977437;28;45427;-65
2022/10/31 02:06:55;;;;;;;;;11.00;10.25;;;;;17.29;64.56;101294.94;4975761;28;45378;-65
2022/10/31 02:09:23;;;;;;;;;9.80;9.00;;;;;17.19;64.79;101276.13;4975773;28;46006;-66
2022/10/31 02:11:52;;;;;;;;;11.00;9.40;;;;;17.26;64.72;101292.63;4959971;28;45391;-66
2022/10/31 02:14:18;;;;;;;;;11.20;10.20;;;;;17.31;64.65;101289.97;4993473;28;45588;-65
2022/10/31 02:16:43;;;;;;;;;16.00;13.75;;;;;17.32;64.70;101284.19;4995339;28;46087;-67
2022/10/31 02:19:09;;;;;;;;;40.50;34.25;;;;;17.33;65.02;101285.00;4996535;28;45489;-67
2022/10/31 02:21:49;;;;;;;;;14.75;12.25;;;;;17.32;64.84;101266.69;4995363;28;45432;-66
2022/10/31 02:24:33;;;;;;;;;14.40;11.20;;;;;17.34;64.66;101270.03;4995806;28;45386;-66
2022/10/31 02:27:17;;;;;;;;;10.00;9.60;;;;;17.16;64.80;101226.69;4996487;28;46826;-66
2022/10/31 02:29:48;;;;;;;;;13.40;13.40;;;;;17.30;64.84;101263.31;4996591;28;45370;-66
2022/10/31 02:32:27;;;;;;;;;15.60;14.00;;;;;17.24;65.09;101272.63;5011241;28;45413;-67
2022/10/31 02:34:57;;;;;;;;;11.40;10.40;;;;;17.16;65.22;101255.25;4997012;28;45427;-68
2022/10/31 02:37:37;;;;;;;;;12.00;11.40;;;;;17.10;65.12;101245.16;4995209;28;47552;-67
2022/10/31 02:40:22;;;;;;;;;10.40;10.40;;;;;17.23;65.45;101257.88;4996499;28;45725;-67
2022/10/31 02:42:47;;;;;;;;;11.00;11.00;;;;;17.26;65.13;101256.56;4994825;28;45395;-69
2022/10/31 02:45:31;;;;;;;;;12.50;10.75;;;;;17.12;65.49;101233.81;5011999;28;45593;-67
2022/10/31 02:47:59;;;;;;;;;13.60;10.40;;;;;17.20;65.08;101241.75;4981311;28;45375;-67
2022/10/31 02:50:32;;;;;;;;;12.00;11.00;;;;;17.08;65.45;101222.38;4994909;28;45313;-67
2022/10/31 02:52:58;;;;;;;;;15.40;12.60;;;;;16.96;65.28;101193.78;4979198;28;45339;-68
2022/10/31 02:55:26;;;;;;;;;9.75;9.25;;;;;17.11;65.29;101221.00;5011714;28;45322;-69
2022/10/31 02:57:54;;;;;;;;;9.40;7.80;;;;;17.13;65.27;101227.19;4996450;28;46291;-67
2022/10/31 03:00:20;;;;;;;;;11.80;9.00;;;;;17.24;65.25;101239.31;4986222;28;45461;-69
2022/10/31 03:02:45;;;;;;;;;11.00;9.50;;;;;17.05;65.34;101222.84;4971218;28;45405;-67
2022/10/31 03:05:29;;;;;;;;;16.00;12.25;;;;;17.22;65.46;101238.75;4996695;28;45547;-67
2022/10/31 03:08:00;;;;;;;;;11.20;10.80;;;;;17.22;65.58;101236.78;4996159;28;46525;-66
2022/10/31 03:10:48;;;;;;;;;9.60;9.60;;;;;17.21;65.48;101240.66;4995828;28;45317;-68
2022/10/31 03:13:37;;;;;;;;;12.00;10.60;;;;;17.18;65.73;101232.84;4989122;28;45354;-66
2022/10/31 03:16:14;;;;;;;;;14.00;12.00;;;;;17.23;65.21;101241.25;4995898;28;45833;-68
2022/10/31 03:18:43;;;;;;;;;11.40;10.80;;;;;17.12;65.27;101204.13;4994551;28;45581;-69
2022/10/31 03:21:33;;;;;;;;;11.40;10.40;;;;;17.25;65.12;101225.22;4994541;28;45444;-68
2022/10/31 03:23:58;;;;;;;;;10.00;10.00;;;;;17.25;64.85;101228.00;4994773;28;45438;-68
2022/10/31 03:26:24;;;;;;;;;14.50;13.75;;;;;17.27;65.19;101231.34;4996199;28;45650;-66
2022/10/31 03:28:53;;;;;;;;;5.25;3.75;;;;;17.17;65.25;101209.78;4995787;28;45446;-68
2022/10/31 03:31:19;;;;;;;;;23.60;23.60;;;;;17.30;65.16;101228.09;4994715;28;45365;-68
2022/10/31 03:33:45;;;;;;;;;10.60;10.60;;;;;17.04;65.25;101185.13;4994059;28;45361;-67
2022/10/31 03:36:11;;;;;;;;;11.00;9.75;;;;;17.32;65.28;101213.97;4978347;28;45421;-68
2022/10/31 03:38:36;;;;;;;;;14.80;13.60;;;;;17.09;65.22;101178.81;4994394;28;46651;-66
2022/10/31 03:41:03;;;;;;;;;10.50;10.50;;;;;16.66;64.97;101101.41;4994373;28;45387;-67
2022/10/31 03:43:30;;;;;;;;;13.00;12.60;;;;;17.07;65.41;101159.66;4994108;28;45368;-66
2022/10/31 03:45:56;;;;;;;;;15.60;14.40;;;;;17.31;65.21;101206.75;4994210;28;45453;-67
2022/10/31 03:48:22;;;;;;;;;13.00;12.00;;;;;17.17;65.34;101197.84;4978013;28;46138;-69
2022/10/31 03:50:49;;;;;;;;;15.50;13.00;;;;;17.23;65.64;101201.59;4994029;28;45307;-68
2022/10/31 03:53:19;;;;;;;;;12.40;12.40;;;;;17.25;65.36;101203.03;4994152;28;45279;-68
2022/10/31 03:55:50;;;;;;;;;14.60;13.60;;;;;17.25;65.39;101197.47;4994393;28;45303;-68
2022/10/31 03:58:21;;;;;;;;;13.00;11.60;;;;;17.09;65.45;101174.13;4977751;28;45435;-67
2022/10/31 04:00:46;;;;;;;;;10.60;10.60;;;;;17.25;65.50;101196.63;4977754;28;45389;-67
2022/10/31 04:03:17;;;;;;;;;12.75;12.75;;;;;17.07;65.50;101171.59;4994290;28;45335;-66
2022/10/31 04:05:43;;;;;;;;;13.00;11.00;;;;;17.23;65.57;101193.28;4994206;28;45351;-67
2022/10/31 04:08:11;;;;;;;;;17.60;14.00;;;;;17.22;65.60;101186.88;4977381;28;46286;-68
2022/10/31 04:10:37;;;;;;;;;13.00;13.00;;;;;17.21;65.78;101176.88;5010615;28;45402;-69
2022/10/31 04:13:11;;;;;;;;;12.50;11.00;;;;;17.15;65.53;101167.63;4993340;28;45408;-70
2022/10/31 04:15:37;;;;;;;;;14.80;14.00;;;;;17.23;65.63;101182.19;4994299;28;45496;-70
2022/10/31 04:18:02;;;;;;;;;14.50;13.50;;;;;17.18;65.55;101175.44;4993142;28;45489;-70
2022/10/31 04:20:35;;;;;;;;;14.00;14.00;;;;;17.19;65.60;101181.81;4977343;28;45355;-68
2022/10/31 04:23:01;;;;;;;;;19.00;15.60;;;;;17.17;65.88;101183.97;4993836;28;45424;-69
2022/10/31 04:25:26;;;;;;;;;12.00;12.00;;;;;17.17;66.04;101172.88;4993984;28;45405;-69
2022/10/31 04:27:52;;;;;;;;;14.00;12.00;;;;;17.00;65.77;101143.13;4977367;28;47767;-69
2022/10/31 04:30:18;;;;;;;;;17.00;14.50;;;;;17.13;66.07;101172.53;4993482;28;45342;-68
2022/10/31 04:32:43;;;;;;;;;17.25;15.00;;;;;16.94;66.13;101133.88;4993387;28;45477;-68
2022/10/31 04:35:08;;;;;;;;;18.00;13.75;;;;;17.14;66.27;101176.16;4993711;28;45438;-68
2022/10/31 04:37:34;;;;;;;;;14.50;14.25;;;;;17.19;65.91;101177.09;4993917;28;46091;-68
2022/10/31 04:39:59;;;;;;;;;16.00;14.75;;;;;17.14;66.37;101167.84;4994913;28;45533;-69
2022/10/31 04:42:25;;;;;;;;;13.50;13.50;;;;;17.14;66.06;101167.84;4971324;28;45788;-68
2022/10/31 04:44:50;;;;;;;;;21.25;19.00;;;;;17.11;66.25;101169.19;4997317;28;45500;-68
2022/10/31 04:47:16;;;;;;;;;15.75;13.50;;;;;16.77;65.98;101097.75;4997880;28;46123;-68
2022/10/31 04:49:41;;;;;;;;;19.75;16.25;;;;;17.16;66.53;101160.97;4998497;28;45318;-67
2022/10/31 04:52:07;;;;;;;;;15.50;15.50;;;;;17.02;66.44;101137.38;4998363;28;45444;-69
2022/10/31 04:54:33;;;;;;;;;16.80;15.60;;;;;16.96;66.72;101132.78;4997245;28;45581;-69
2022/10/31 04:56:58;;;;;;;;;16.75;15.50;;;;;17.07;66.62;101141.09;4997162;28;45412;-69
2022/10/31 04:59:24;;;;;;;;;16.50;14.50;;;;;17.08;66.57;101133.63;4997706;28;45328;-67
2022/10/31 05:01:49;;;;;;;;;15.25;13.00;;;;;17.07;66.88;101129.16;5013823;28;45322;-69
2022/10/31 05:04:15;;;;;;;;;13.50;13.50;;;;;17.05;66.39;101126.66;4997315;28;45542;-69
2022/10/31 05:06:40;;;;;;;;;15.75;14.25;;;;;17.05;66.63;101128.56;4998051;28;46409;-69
2022/10/31 05:09:06;;;;;;;;;17.75;17.00;;;;;16.81;66.33;101103.63;4998016;28;45227;-69
2022/10/31 05:11:31;;;;;;;;;13.25;12.75;;;;;16.97;66.63;101143.63;4998193;28;45354;-68
2022/10/31 05:13:57;;;;;;;;;17.50;15.75;;;;;17.01;66.47;101132.88;4985740;28;45683;-68
2022/10/31 05:16:22;;;;;;;;;11.00;11.00;;;;;16.77;66.55;101102.47;5009729;28;47108;-66
2022/10/31 05:18:48;;;;;;;;;15.75;13.00;;;;;16.69;66.72;101087.06;4977711;28;45343;-67
2022/10/31 05:21:13;;;;;;;;;17.75;16.50;;;;;16.94;66.47;101119.16;4977342;28;45506;-66
2022/10/31 05:23:39;;;;;;;;;12.75;12.75;;;;;16.88;66.39;101103.50;4960791;28;45507;-68
2022/10/31 05:26:04;;;;;;;;;15.25;13.25;;;;;16.83;66.67;101095.09;4978050;28;46238;-68
2022/10/31 05:28:30;;;;;;;;;13.50;11.50;;;;;16.84;66.38;101083.75;4976614;28;45533;-68
2022/10/31 05:30:56;;;;;;;;;15.75;14.75;;;;;16.89;66.45;101088.56;4976903;28;45384;-68
2022/10/31 05:33:21;;;;;;;;;15.50;12.00;;;;;16.81;66.50;101092.56;4976686;28;45911;-68
2022/10/31 05:35:47;;;;;;;;;17.00;10.00;;;;;16.79;66.94;101090.06;4976191;28;46294;-68
2022/10/31 05:38:12;;;;;;;;;14.00;12.75;;;;;16.75;67.31;101088.84;4944025;28;45828;-68
2022/10/31 05:40:38;;;;;;;;;13.50;12.00;;;;;16.79;66.69;101112.22;4977958;28;45795;-67
2022/10/31 05:43:03;;;;;;;;;14.00;14.00;;;;;16.62;66.92;101078.03;5009082;28;45345;-67
2022/10/31 05:45:29;;;;;;;;;13.75;12.50;;;;;16.34;66.77;101040.88;4958653;28;47915;-69
2022/10/31 05:47:56;;;;;;;;;12.00;12.00;;;;;16.82;66.53;101096.19;4979321;28;45359;-68
2022/10/31 05:50:21;;;;;;;;;11.80;11.80;;;;;16.88;66.50;101106.28;4979828;28;45414;-68
2022/10/31 05:52:47;;;;;;;;;14.50;13.75;;;;;16.66;66.23;101062.63;4979489;28;45524;-68
2022/10/31 05:55:13;;;;;;;;;14.25;11.25;;;;;16.91;66.53;101103.88;4995774;28;45418;-67
2022/10/31 05:57:38;;;;;;;;;11.50;10.50;;;;;16.89;66.13;101091.34;4979420;28;45460;-68
2022/10/31 06:00:05;;;;;;;;;14.00;10.50;;;;;16.72;66.11;101072.72;4995616;28;45355;-67
2022/10/31 06:02:34;;;;;;;;;8.40;8.40;;;;;16.94;66.01;101085.91;4997416;28;45331;-68
2022/10/31 06:05:00;;;;;;;;;9.40;8.60;;;;;16.92;66.05;101080.59;4995935;28;45375;-68
2022/10/31 06:07:26;;;;;;;;;10.40;10.40;;;;;17.00;65.93;101084.06;4996605;28;45211;-67
2022/10/31 06:09:51;;;;;;;;;9.50;9.00;;;;;17.01;65.93;101092.13;4975410;28;45381;-68
2022/10/31 06:12:17;;;;;;;;;9.75;9.75;;;;;17.03;65.74;101087.22;4973906;28;45339;-67
2022/10/31 06:14:42;;;;;;;;;12.00;12.00;;;;;16.97;66.14;101079.03;4978561;28;46292;-67
2022/10/31 06:17:08;;;;;;;;;15.25;12.00;;;;;16.90;65.93;101066.16;4996707;28;45262;-67
2022/10/31 06:19:33;;;;;;;;;8.75;7.75;;;;;16.98;65.77;101069.63;4995451;28;45918;-67
2022/10/31 06:21:59;;;;;;;;;9.00;7.75;;;;;16.94;65.76;101067.34;5012200;28;45967;-66
2022/10/31 06:24:24;;;;;;;;;13.00;12.00;;;;;16.94;65.72;101064.56;4995010;28;47568;-66
2022/10/31 06:26:50;;;;;;;;;12.25;11.25;;;;;16.92;65.94;101066.72;4996695;28;45243;-65
2022/10/31 06:29:15;;;;;;;;;10.75;8.00;;;;;16.90;65.60;101054.22;4996708;28;45443;-67
2022/10/31 06:31:41;;;;;;;;;9.25;8.25;;;;;16.94;65.63;101059.03;4995620;28;45927;-67
2022/10/31 06:34:06;;;;;;;;;8.75;8.00;;;;;16.84;65.58;101053.28;4996071;28;46355;-68
2022/10/31 06:36:32;;;;;;;;;10.50;9.25;;;;;16.83;65.64;101051.59;4995679;28;45869;-66
2022/10/31 06:38:57;;;;;;;;;10.50;10.00;;;;;16.83;65.60;101047.97;4994962;28;45887;-66
2022/10/31 06:41:23;;;;;;;;;15.50;12.50;;;;;16.94;65.41;101060.94;4996969;28;45676;-67
2022/10/31 06:43:48;;;;;;;;;10.25;10.25;;;;;16.95;65.54;101059.84;4986211;28;46099;-68
2022/10/31 06:46:14;;;;;;;;;9.00;9.00;;;;;16.90;65.57;101048.66;4976894;28;45299;-67
2022/10/31 06:48:42;;;;;;;;;12.25;10.50;;;;;16.93;65.70;101062.88;4996860;28;45388;-67
2022/10/31 06:51:08;;;;;;;;;11.60;10.00;;;;;16.88;65.73;101054.47;4996758;28;45660;-66
2022/10/31 06:53:33;;;;;;;;;12.75;10.00;;;;;16.85;65.81;101060.50;4996312;28;46137;-68
2022/10/31 06:55:59;;;;;;;;;11.25;11.25;;;;;16.87;66.04;101055.53;4995238;28;45323;-68
2022/10/31 06:58:24;;;;;;;;;11.00;10.00;;;;;16.90;65.98;101056.97;4996324;28;45461;-69
2022/10/31 07:00:50;;;;;;;;;12.75;9.25;;;;;16.67;65.87;101014.41;4995546;28;45591;-69
2022/10/31 07:03:15;;;;;;;;;13.00;13.00;;;;;16.78;65.81;101029.31;4978009;28;45793;-67
2022/10/31 07:05:41;;;;;;;;;13.50;10.75;;;;;16.92;65.94;101044.56;4978710;28;45424;-69
2022/10/31 07:08:08;;;;;;;;;10.40;10.40;;;;;16.94;65.97;101049.84;4978721;28;45389;-69
2022/10/31 07:10:35;;;;;;;;;11.00;10.00;;;;;16.74;65.91;101014.25;4978784;28;45533;-69
2022/10/31 07:13:05;;;;;;;;;10.20;10.00;;;;;16.96;66.00;101055.16;4962169;28;47643;-69
2022/10/31 07:15:35;;;;;;;;;8.00;8.00;;;;;16.71;66.16;101014.75;4942937;28;45572;-68
2022/10/31 07:18:01;;;;;;;;;12.40;10.80;;;;;16.78;65.81;101021.84;4976542;28;45333;-70
2022/10/31 07:20:28;;;;;;;;;13.40;11.20;;;;;16.82;65.92;101018.56;4959184;28;45398;-70
2022/10/31 07:22:54;;;;;;;;;14.60;11.40;;;;;17.02;66.11;101049.50;4976465;28;46225;-69
2022/10/31 07:25:19;;;;;;;;;12.60;11.60;;;;;17.03;66.29;101033.72;4975153;28;45561;-68
2022/10/31 07:27:45;;;;;;;;;12.75;11.50;;;;;17.04;66.25;101024.28;4959010;28;45627;-69
2022/10/31 07:30:11;;;;;;;;;13.25;11.75;;;;;17.04;66.35;101032.63;4959233;28;45649;-69
2022/10/31 07:32:40;;;;;;;;;13.00;12.00;;;;;16.97;66.11;101020.81;4958246;28;45478;-69
2022/10/31 07:35:07;;;;;;;;;12.40;11.40;;;;;17.03;66.52;101037.31;4974571;28;45208;-70
2022/10/31 07:37:33;;;;;;;;;16.20;14.60;;;;;16.90;66.13;101004.31;4974670;28;45271;-69
2022/10/31 07:39:58;;;;;;;;;12.50;12.50;;;;;17.07;66.28;101037.66;4976209;28;45468;-68
2022/10/31 07:42:24;;;;;;;;;13.75;11.50;;;;;16.87;66.10;101002.03;4973898;28;46834;-69
2022/10/31 07:44:50;;;;;;;;;17.75;13.00;;;;;17.06;66.56;101033.19;4974275;28;45445;-68
2022/10/31 07:47:15;;;;;;;;;15.00;13.75;;;;;17.01;66.16;101022.81;4974607;28;45565;-69
2022/10/31 07:49:41;;;;;;;;;8.00;7.25;;;;;17.11;66.33;101038.84;4941854;28;45430;-70
2022/10/31 07:52:06;;;;;;;;;20.00;17.50;;;;;16.92;66.35;101000.19;4974472;28;45941;-68
2022/10/31 07:54:32;;;;;;;;;10.00;10.00;;;;;17.11;66.24;101036.06;4941629;28;45411;-67
2022/10/31 07:56:57;;;;;;;;;17.00;16.00;;;;;16.88;66.35;100996.25;4974632;28;45438;-68
2022/10/31 07:59:23;;;;;;;;;13.75;13.25;;;;;16.92;66.61;101004.91;4974380;28;45438;-67
2022/10/31 08:01:48;;;;;;;;;16.25;15.25;;;;;17.04;66.57;101025.13;4974492;28;47752;-68
2022/10/31 08:04:13;;;;;;;;;20.50;16.75;;;;;16.99;66.51;101019.47;4958294;28;45437;-68
2022/10/31 08:06:39;;;;;;;;;16.50;15.50;;;;;16.96;66.70;101019.13;4958020;28;45299;-68
2022/10/31 08:09:04;;;;;;;;;17.00;15.00;;;;;16.99;66.58;101033.34;4974330;28;45429;-67
2022/10/31 08:11:30;;;;;;;;;15.75;15.75;;;;;17.01;66.86;101033.06;4974016;28;46023;-66
2022/10/31 08:13:55;;;;;;;;;18.25;17.00;;;;;17.05;66.77;101029.59;4981345;28;45279;-66
2022/10/31 08:16:21;;;;;;;;;18.00;16.75;;;;;16.95;66.71;101009.94;4955687;28;45467;-68
2022/10/31 08:18:47;;;;;;;;;13.50;13.50;;;;;17.10;66.67;101030.75;4993301;28;45465;-68
2022/10/31 08:21:13;;;;;;;;;17.60;16.60;;;;;17.09;66.86;101026.31;4994450;28;46419;-67
2022/10/31 08:23:38;;;;;;;;;18.00;16.00;;;;;17.01;67.08;101024.75;4993324;28;45253;-64
2022/10/31 08:26:05;;;;;;;;;17.75;17.50;;;;;17.08;66.97;101014.41;4993711;28;45489;-67
2022/10/31 08:28:31;;;;;;;;;19.20;16.00;;;;;17.14;67.13;101007.81;4995234;28;45333;-67
2022/10/31 08:30:57;;;;;;;;;24.25;19.50;;;;;17.10;66.92;101006.66;4960874;28;47602;-64
2022/10/31 08:33:23;;;;;;;;;20.00;17.00;;;;;17.13;67.46;101008.09;5009527;28;45636;-65
2022/10/31 08:35:49;;;;;;;;;25.75;21.50;;;;;17.19;67.19;100998.78;5010147;28;45308;-65
2022/10/31 08:38:15;;;;;;;;;26.80;24.60;;;;;17.13;67.05;100988.69;4978250;28;45343;-63
2022/10/31 08:40:40;;;;;;;;;27.00;24.00;;;;;17.18;67.14;100995.16;4993170;28;46831;-64
2022/10/31 08:43:10;;;;;;;;;25.50;23.50;;;;;17.20;67.13;100981.03;4994628;28;45244;-65
2022/10/31 08:45:36;;;;;;;;;28.00;24.60;;;;;17.02;67.42;100966.31;4993598;28;45485;-64
2022/10/31 08:48:03;;;;;;;;;25.75;23.50;;;;;17.14;67.26;100984.81;4993668;28;45753;-63
2022/10/31 08:50:29;;;;;;;;;26.60;22.20;;;;;17.14;67.11;100979.28;4993329;28;45907;-67
2022/10/31 08:53:06;;;;;;;;;26.20;26.20;;;;;17.14;67.27;100982.03;4993330;28;46167;-67
2022/10/31 08:55:33;;;;;;;;;30.20;27.20;;;;;17.09;67.21;100960.63;4993828;28;45324;-66
2022/10/31 08:57:59;;;;;;;;;27.00;25.00;;;;;17.12;66.97;100940.69;4970940;28;45426;-64
2022/10/31 09:00:24;;;;;;;;;24.50;23.00;;;;;17.14;66.82;100932.13;4992296;28;46880;-68
2022/10/31 09:03:01;;;;;;;;;25.50;24.50;;;;;17.15;66.63;100909.69;5008756;28;45437;-65
2022/10/31 09:05:26;;;;;;;;;29.60;27.80;;;;;17.46;66.62;100948.19;4991914;28;45490;-61
2022/10/31 09:07:56;;;;;;;;;24.25;22.50;;;;;17.11;66.45;100880.78;4992754;28;45321;-60
2022/10/31 09:10:21;;;;;;;;;35.20;30.60;;;;;17.41;66.30;100912.03;4993484;28;45514;-61
2022/10/31 09:12:47;;;;;;;;;26.75;23.25;;;;;17.51;66.28;100916.88;4992734;28;45322;-61
2022/10/31 09:15:12;;;;;;;;;26.50;21.00;;;;;17.54;66.26;100916.38;4993085;28;45470;-62
2022/10/31 09:17:38;;;;;;;;;29.75;27.25;;;;;17.53;66.11;100910.00;4981049;28;45637;-67
2022/10/31 09:20:03;;;;;;;;;20.50;18.00;;;;;17.56;66.08;100911.44;4983308;28;45747;-65
2022/10/31 09:22:29;;;;;;;;;26.00;23.75;;;;;17.58;66.08;100900.91;4985792;28;45470;-67
2022/10/31 09:24:54;;;;;;;;;30.00;27.75;;;;;17.54;65.79;100894.16;4991662;28;45359;-64
2022/10/31 09:27:20;;;;;;;;;23.75;23.75;;;;;17.45;65.74;100874.38;4997057;28;45432;-68
2022/10/31 09:29:45;;;;;;;;;33.50;26.50;;;;;17.60;65.72;100898.69;4995714;28;48614;-68
2022/10/31 09:32:11;;;;;;;;;32.50;24.25;;;;;17.63;65.82;100898.22;4996002;28;45754;-65
2022/10/31 09:34:37;;;;;;;;;24.00;24.00;;;;;17.69;65.92;100904.66;4995559;28;45429;-63
2022/10/31 09:37:02;;;;;;;;;25.00;25.00;;;;;17.71;65.89;100900.53;4996045;28;45352;-65
2022/10/31 09:39:28;;;;;;;;;25.75;24.00;;;;;17.72;65.71;100896.66;4997190;28;46079;-66
2022/10/31 09:42:22;;;;;;;;;25.25;22.25;;;;;17.78;65.77;100891.19;4997457;28;45423;-62
2022/10/31 09:45:06;;;;;;;;;20.80;17.60;;;;;17.80;65.38;100878.72;4996293;28;45491;-64
2022/10/31 09:47:37;;;;;;;;;23.00;22.40;;;;;17.84;65.26;100867.94;4996340;28;45296;-65
2022/10/31 09:50:22;;;;;;;;;27.80;26.60;;;;;17.72;65.33;100849.47;4989085;28;46291;-63
2022/10/31 09:52:53;;;;;;;;;25.20;21.40;;;;;17.78;65.17;100852.31;4994737;28;45898;-64
2022/10/31 09:55:46;;;;;;;;;26.60;22.60;;;;;17.94;65.16;100862.53;4996096;28;45393;-66
2022/10/31 09:58:15;;;;;;;;;24.60;24.00;;;;;18.02;64.87;100862.06;4993972;28;45576;-65
2022/10/31 10:00:41;;;;;;;;;23.00;18.20;;;;;18.09;64.67;100872.19;4996218;28;46704;-66
2022/10/31 10:03:11;;;;;;;;;29.00;23.20;;;;;18.11;64.51;100867.19;4996374;28;45470;-64
2022/10/31 10:05:54;;;;;;;;;29.20;24.20;;;;;18.17;64.59;100860.59;4994489;28;45426;-68
2022/10/31 10:08:21;;;;;;;;;28.40;25.00;;;;;18.28;64.43;100850.44;4981754;28;45461;-65
2022/10/31 10:11:05;;;;;;;;;27.20;23.60;;;;;18.42;63.86;100836.97;4974465;28;46147;-67
2022/10/31 10:13:53;;;;;;;;;22.80;22.00;;;;;18.58;63.49;100837.97;4978166;28;45441;-65
2022/10/31 10:16:26;;;;;;;;;18.40;17.80;;;;;18.81;62.78;100820.09;4994904;28;45346;-68
2022/10/31 10:19:03;;;;;;;;;19.60;18.60;;;;;19.03;62.40;100810.81;4993777;28;45535;-66
2022/10/31 10:21:57;;;;;;;;;30.00;23.40;;;;;18.88;61.85;100777.31;4950291;28;45937;-64
2022/10/31 10:25:02;;;;;;;;;30.00;23.00;;;;;19.01;61.92;100806.59;4988040;28;47301;-66
2022/10/31 10:27:41;;;;;;;;;25.00;23.20;;;;;19.03;61.66;100808.03;4989716;28;45358;-61
2022/10/31 10:30:15;;;;;;;;;25.00;20.00;;;;;18.80;61.60;100776.69;4989621;28;45464;-62
2022/10/31 10:32:50;;;;;;;;;20.00;19.00;;;;;18.64;62.24;100738.78;4984002;28;45732;-63
2022/10/31 10:35:41;;;;;;;;;24.40;22.60;;;;;19.10;61.39;100791.09;4988038;28;45909;-64
2022/10/31 10:38:18;;;;;;;;;22.60;20.80;;;;;19.18;61.33;100790.63;4976551;28;45527;-65
2022/10/31 10:40:43;;;;;;;;;28.40;25.00;;;;;19.30;60.80;100786.75;4985486;28;45584;-70
2022/10/31 10:43:22;;;;;;;;;25.00;22.50;;;;;19.35;61.00;100775.66;4953560;28;47369;-66
2022/10/31 10:48:52;;;;;;;;;24.60;23.00;;;;;20.57;57.79;100738.38;4990212;28;45400;-66
2022/10/31 10:51:31;;;;;;;;;22.50;21.00;;;;;22.48;53.54;100721.91;4991221;28;45583;-49
2022/10/31 10:54:24;;;;;;;;;18.00;15.80;;;;;26.27;45.13;100737.41;4990015;28;46992;-58
2022/10/31 10:57:18;;;;;;;;;25.60;17.20;;;;;27.99;40.20;100720.22;4990199;28;45724;-60
2022/10/31 10:59:45;;;;;;;;;23.40;17.40;;;;;30.59;36.83;100702.94;4977219;28;45771;-60
2022/10/31 11:02:22;;;;;;;;;18.80;16.40;;;;;32.11;32.82;100672.13;4953332;28;45580;-61
2022/10/31 11:04:51;;;;;;;;;19.00;16.00;;;;;33.68;31.08;100706.19;4968736;28;45469;-61
2022/10/31 11:07:16;;;;;;;;;16.20;15.60;;;;;34.57;29.56;100676.28;4952702;28;45406;-60
2022/10/31 11:09:42;;;;;;;;;18.00;15.75;;;;;35.50;28.60;100676.16;4969313;28;45783;-59
2022/10/31 11:12:15;;;;;;;;;18.25;16.75;;;;;36.45;27.66;100691.59;4977172;28;45671;-61
2022/10/31 11:14:50;;;;;;;;;15.00;14.00;;;;;37.11;26.18;100670.16;4985560;28;46546;-60
2022/10/31 11:17:36;;;;;;;;;16.60;15.20;;;;;37.51;25.53;100639.75;4989610;28;45521;-61
2022/10/31 11:20:12;;;;;;;;;15.00;14.00;;;;;37.64;25.12;100657.41;4969033;28;45469;-64
2022/10/31 11:22:37;;;;;;;;;19.60;16.60;;;;;37.76;24.94;100690.59;4961747;28;45405;-64